createdAt,value
2018-05-25T00:02:24.504Z,15.93
2018-05-25T00:04:53.189Z,15.89
2018-05-25T00:07:21.970Z,15.86
2018-05-25T00:09:50.757Z,15.87
2018-05-25T00:12:19.758Z,15.83
2018-05-25T00:14:48.638Z,15.88
2018-05-25T00:17:17.375Z,15.87
2018-05-25T00:19:46.142Z,15.84
2018-05-25T00:22:14.901Z,15.85
2018-05-25T00:24:44.730Z,15.82
2018-05-25T00:27:13.433Z,15.80
2018-05-25T00:29:42.130Z,15.70
2018-05-25T00:32:10.862Z,15.64
2018-05-25T00:34:39.489Z,15.57
2018-05-25T00:37:08.134Z,15.59
2018-05-25T00:39:36.999Z,15.56
2018-05-25T00:42:05.764Z,15.50
2018-05-25T00:44:34.602Z,15.58
2018-05-25T00:47:03.489Z,15.56
2018-05-25T00:49:32.277Z,15.52
2018-05-25T00:52:01.529Z,15.46
2018-05-25T00:54:30.362Z,15.44
2018-05-25T00:56:59.355Z,15.53
2018-05-25T00:59:28.040Z,15.52
2018-05-25T01:01:56.645Z,15.49
2018-05-25T01:04:25.420Z,15.44
2018-05-25T01:06:54.128Z,15.40
2018-05-25T01:09:22.778Z,15.36
2018-05-25T01:11:51.670Z,15.21
2018-05-25T01:14:20.460Z,15.15
2018-05-25T01:16:49.247Z,15.17
2018-05-25T01:19:18.035Z,15.07
2018-05-25T01:21:46.719Z,15.13
2018-05-25T01:24:15.619Z,15.17
2018-05-25T01:26:44.917Z,15.09
2018-05-25T01:29:13.700Z,15.14
2018-05-25T01:31:42.372Z,15.12
2018-05-25T01:34:11.097Z,15.15
2018-05-25T01:36:39.953Z,15.20
2018-05-25T01:39:08.750Z,15.18
2018-05-25T01:41:37.633Z,15.12
2018-05-25T01:44:06.392Z,15.12
2018-05-25T01:46:35.883Z,15.13
2018-05-25T01:49:04.711Z,15.15
2018-05-25T01:51:33.634Z,15.18
2018-05-25T01:54:02.330Z,15.24
2018-05-25T01:56:31.179Z,15.19
2018-05-25T01:59:00.015Z,15.18
2018-05-25T02:01:28.752Z,15.19
2018-05-25T02:03:57.639Z,15.18
2018-05-25T02:06:26.336Z,15.15
2018-05-25T02:08:56.241Z,15.19
2018-05-25T02:11:25.028Z,15.11
2018-05-25T02:13:53.829Z,15.06
2018-05-25T02:16:22.600Z,15.08
2018-05-25T02:18:51.389Z,15.06
2018-05-25T02:21:20.077Z,15.12
2018-05-25T02:23:48.753Z,15.08
2018-05-25T02:26:17.399Z,15.07
2018-05-25T02:28:46.235Z,15.06
2018-05-25T02:31:15.023Z,15.02
2018-05-25T02:33:43.709Z,14.95
2018-05-25T02:36:12.378Z,15.03
2018-05-25T02:38:41.618Z,15.05
2018-05-25T02:41:10.474Z,14.97
2018-05-25T02:43:39.262Z,14.96
2018-05-25T02:46:08.052Z,14.94
2018-05-25T02:48:37.731Z,14.85
2018-05-25T02:51:06.495Z,14.79
2018-05-25T02:53:35.231Z,14.81
2018-05-25T02:56:05.986Z,14.78
2018-05-25T02:58:34.920Z,14.77
2018-05-25T03:01:03.745Z,14.67
2018-05-25T03:03:32.639Z,14.76
2018-05-25T03:06:01.523Z,14.81
2018-05-25T03:08:30.214Z,14.76
2018-05-25T03:10:58.951Z,14.80
2018-05-25T03:13:27.746Z,14.81
2018-05-25T03:15:56.470Z,14.90
2018-05-25T03:18:25.331Z,14.90
2018-05-25T03:20:54.249Z,14.92
2018-05-25T03:23:22.927Z,14.93
2018-05-25T03:25:51.926Z,15.02
2018-05-25T03:28:20.712Z,15.12
2018-05-25T03:30:49.462Z,15.16
2018-05-25T03:33:18.288Z,15.18
2018-05-25T03:35:47.003Z,15.28
2018-05-25T03:38:15.667Z,15.47
2018-05-25T03:40:44.458Z,15.46
2018-05-25T03:43:13.234Z,15.55
2018-05-25T03:45:42.025Z,15.72
2018-05-25T03:48:10.615Z,15.89
2018-05-25T03:50:39.389Z,16.12
2018-05-25T03:53:08.065Z,16.28
2018-05-25T03:55:37.453Z,16.62
2018-05-25T03:58:06.265Z,17.07
2018-05-25T04:00:46.962Z,17.35
2018-05-25T04:03:16.608Z,17.59
2018-05-25T04:05:45.426Z,18.20
2018-05-25T04:08:14.317Z,18.40
2018-05-25T04:10:43.015Z,18.82
2018-05-25T04:13:11.812Z,19.16
2018-05-25T04:15:40.785Z,19.49
2018-05-25T04:18:09.569Z,19.66
2018-05-25T04:20:38.378Z,20.12
2018-05-25T04:23:07.238Z,20.41
2018-05-25T04:25:35.933Z,20.55
2018-05-25T04:28:04.720Z,20.86
2018-05-25T04:30:33.405Z,21.30
2018-05-25T04:33:02.193Z,21.84
2018-05-25T04:35:31.051Z,21.69
2018-05-25T04:37:59.773Z,21.73
2018-05-25T04:40:28.611Z,22.22
2018-05-25T04:42:57.418Z,22.28
2018-05-25T04:45:26.711Z,22.26
2018-05-25T04:47:55.532Z,22.82
2018-05-25T04:50:25.137Z,22.94
2018-05-25T04:52:53.838Z,23.52
2018-05-25T04:55:22.538Z,23.51
2018-05-25T04:57:51.298Z,23.55
2018-05-25T05:00:20.082Z,23.59
2018-05-25T05:02:48.762Z,24.00
2018-05-25T05:05:17.558Z,24.07
2018-05-25T05:07:46.185Z,23.99
2018-05-25T05:10:14.930Z,24.45
2018-05-25T05:12:43.714Z,24.14
2018-05-25T05:15:12.573Z,24.14
2018-05-25T05:17:41.535Z,24.74
2018-05-25T05:20:10.380Z,24.78
2018-05-25T05:22:39.048Z,24.77
2018-05-25T05:25:07.752Z,24.82
2018-05-25T05:27:37.457Z,25.14
2018-05-25T05:30:06.354Z,25.32
2018-05-25T05:32:35.651Z,25.19
2018-05-25T05:35:04.442Z,25.38
2018-05-25T05:37:33.328Z,25.66
2018-05-25T05:40:01.982Z,25.85
2018-05-25T05:42:30.802Z,26.07
2018-05-25T05:44:59.586Z,26.41
2018-05-25T05:47:28.267Z,26.50
2018-05-25T05:49:58.099Z,26.66
2018-05-25T05:52:26.931Z,27.07
2018-05-25T05:54:56.481Z,27.57
2018-05-25T05:57:25.164Z,27.64
2018-05-25T05:59:54.784Z,27.92
2018-05-25T06:02:23.588Z,27.64
2018-05-25T06:04:52.357Z,27.87
2018-05-25T06:07:21.324Z,27.48
2018-05-25T06:09:50.020Z,27.77
2018-05-25T06:12:18.854Z,28.02
2018-05-25T06:14:47.801Z,28.00
2018-05-25T06:17:16.796Z,28.04
2018-05-25T06:19:45.490Z,28.33
2018-05-25T06:22:14.117Z,27.73
2018-05-25T06:24:42.856Z,28.33
2018-05-25T06:27:11.548Z,28.50
2018-05-25T06:29:40.551Z,28.69
2018-05-25T06:32:09.323Z,29.13
2018-05-25T06:34:38.305Z,28.90
2018-05-25T06:37:07.094Z,29.10
2018-05-25T06:39:36.543Z,29.24
2018-05-25T06:42:05.385Z,29.89
2018-05-25T06:44:34.173Z,30.27
2018-05-25T06:47:03.172Z,30.16
2018-05-25T06:49:31.951Z,30.00
2018-05-25T06:52:00.748Z,30.79
2018-05-25T06:54:30.534Z,30.12
2018-05-25T06:56:59.444Z,30.14
2018-05-25T06:59:28.138Z,30.16
2018-05-25T07:01:56.812Z,30.28
2018-05-25T07:04:25.525Z,30.21
2018-05-25T07:06:54.138Z,30.13
2018-05-25T07:09:22.832Z,30.50
2018-05-25T07:11:51.655Z,31.26
2018-05-25T07:14:20.441Z,31.16
2018-05-25T07:16:49.337Z,31.83
2018-05-25T07:19:18.096Z,31.43
2018-05-25T07:21:46.868Z,31.76
2018-05-25T07:24:15.492Z,31.77
2018-05-25T07:26:44.179Z,31.60
2018-05-25T07:29:13.886Z,32.07
2018-05-25T07:31:43.701Z,31.81
2018-05-25T07:34:12.510Z,32.16
2018-05-25T07:36:41.268Z,31.84
2018-05-25T07:39:10.057Z,31.84
2018-05-25T07:41:38.745Z,32.39
2018-05-25T07:44:07.632Z,32.53
2018-05-25T07:46:36.534Z,32.31
2018-05-25T07:49:06.032Z,32.78
2018-05-25T07:51:34.813Z,31.71
2018-05-25T07:54:03.502Z,32.60
2018-05-25T07:56:32.288Z,32.73
2018-05-25T07:59:00.970Z,33.19
2018-05-25T08:01:29.860Z,33.50
2018-05-25T08:03:58.509Z,33.67
2018-05-25T08:06:27.344Z,33.48
2018-05-25T08:08:56.121Z,33.69
2018-05-25T08:11:25.014Z,34.57
2018-05-25T08:13:53.798Z,34.95
2018-05-25T08:16:22.541Z,34.50
2018-05-25T08:18:51.481Z,34.97
2018-05-25T08:21:20.343Z,35.08
2018-05-25T08:23:49.307Z,34.81
2018-05-25T08:26:18.045Z,34.93
2018-05-25T08:28:46.831Z,34.20
2018-05-25T08:31:15.938Z,32.48
2018-05-25T08:33:44.712Z,33.30
2018-05-25T08:36:13.503Z,33.47
2018-05-25T08:38:42.286Z,33.09
2018-05-25T08:41:10.996Z,33.89
2018-05-25T08:43:40.270Z,33.99
2018-05-25T08:46:08.956Z,34.82
2018-05-25T08:48:38.237Z,35.58
2018-05-25T08:51:06.937Z,35.03
2018-05-25T08:53:35.625Z,34.25
2018-05-25T08:56:04.734Z,33.30
2018-05-25T08:58:33.478Z,33.59
2018-05-25T09:01:02.768Z,35.60
2018-05-25T09:03:31.599Z,35.76
2018-05-25T09:06:00.357Z,35.71
2018-05-25T09:08:29.275Z,34.27
2018-05-25T09:10:58.167Z,34.57
2018-05-25T09:13:26.952Z,34.71
2018-05-25T09:15:55.641Z,35.63
2018-05-25T09:18:24.241Z,35.57
2018-05-25T09:20:54.025Z,34.49
2018-05-25T09:23:22.813Z,34.22
2018-05-25T09:25:51.497Z,34.66
2018-05-25T09:28:20.392Z,35.67
2018-05-25T09:30:49.095Z,35.47
2018-05-25T09:33:17.774Z,35.32
2018-05-25T09:35:46.547Z,35.34
2018-05-25T09:38:15.435Z,35.01
2018-05-25T09:40:44.222Z,35.70
2018-05-25T09:43:13.024Z,36.16
2018-05-25T09:45:41.896Z,34.93
2018-05-25T09:48:10.647Z,35.31
2018-05-25T09:50:39.379Z,34.98
2018-05-25T09:53:08.061Z,35.56
2018-05-25T09:55:37.059Z,35.71
2018-05-25T09:58:05.944Z,34.99
2018-05-25T10:00:34.726Z,36.72
2018-05-25T10:03:03.409Z,36.04
2018-05-25T10:05:32.097Z,36.32
2018-05-25T10:08:00.887Z,35.60
2018-05-25T10:10:29.601Z,36.25
2018-05-25T10:12:58.458Z,36.08
2018-05-25T10:15:27.130Z,36.41
2018-05-25T10:17:55.955Z,37.36
2018-05-25T10:20:24.725Z,36.26
2018-05-25T10:22:53.507Z,36.84
2018-05-25T10:25:22.397Z,35.05
2018-05-25T10:27:51.073Z,35.36
2018-05-25T10:30:20.009Z,35.39
2018-05-25T10:32:48.762Z,35.31
2018-05-25T10:35:17.727Z,35.92
2018-05-25T10:37:46.541Z,36.49
2018-05-25T10:40:15.190Z,36.56
2018-05-25T10:42:43.906Z,36.62
2018-05-25T10:45:12.594Z,35.66
2018-05-25T10:47:42.184Z,36.34
2018-05-25T10:50:10.893Z,36.26
2018-05-25T10:52:39.673Z,35.36
2018-05-25T10:55:08.650Z,34.45
2018-05-25T10:57:37.272Z,35.51
2018-05-25T11:00:06.700Z,33.83
2018-05-25T11:02:35.630Z,34.38
2018-05-25T11:05:04.429Z,34.44
2018-05-25T11:07:33.107Z,34.55
2018-05-25T11:10:01.806Z,35.41
2018-05-25T11:12:30.792Z,35.44
2018-05-25T11:14:59.577Z,35.16
2018-05-25T11:17:28.468Z,35.44
2018-05-25T11:19:57.257Z,34.40
2018-05-25T11:22:25.947Z,34.80
2018-05-25T11:24:54.688Z,33.81
2018-05-25T11:27:23.525Z,33.96
2018-05-25T11:29:52.180Z,33.09
2018-05-25T11:32:20.894Z,32.62
2018-05-25T11:34:49.973Z,31.80
2018-05-25T11:37:18.576Z,30.75
2018-05-25T11:39:47.154Z,30.78
2018-05-25T11:42:15.940Z,30.42
2018-05-25T11:44:45.456Z,30.15
2018-05-25T11:47:14.126Z,29.90
2018-05-25T11:49:42.705Z,29.49
2018-05-25T11:52:11.971Z,30.01
2018-05-25T11:54:40.548Z,29.95
2018-05-25T11:57:09.123Z,29.63
2018-05-25T11:59:37.758Z,29.59
2018-05-25T12:02:06.319Z,29.76
2018-05-25T12:04:35.930Z,30.09
2018-05-25T12:07:04.808Z,29.80
2018-05-25T12:09:33.401Z,30.03
2018-05-25T12:12:02.102Z,30.20
2018-05-25T12:14:30.677Z,29.95
2018-05-25T12:16:59.360Z,30.02
2018-05-25T12:19:28.042Z,30.35
2018-05-25T12:21:56.637Z,30.10
2018-05-25T12:24:25.300Z,29.63
2018-05-25T12:26:53.961Z,29.75
2018-05-25T12:29:22.489Z,30.23
2018-05-25T12:31:51.125Z,30.26
2018-05-25T12:34:19.678Z,30.38
2018-05-25T12:36:48.438Z,30.36
2018-05-25T12:39:16.973Z,30.24
2018-05-25T12:41:45.571Z,30.58
2018-05-25T12:44:14.280Z,30.25
2018-05-25T12:46:42.886Z,30.26
2018-05-25T12:49:11.563Z,30.07
2018-05-25T12:51:40.456Z,30.41
2018-05-25T12:54:09.336Z,30.84
2018-05-25T12:56:38.054Z,30.92
2018-05-25T12:59:06.669Z,30.46
2018-05-25T13:01:35.311Z,30.47
2018-05-25T13:04:04.021Z,30.58
2018-05-25T13:06:32.605Z,30.87
2018-05-25T13:09:01.149Z,30.90
2018-05-25T13:11:29.803Z,31.01
2018-05-25T13:13:58.342Z,30.48
2018-05-25T13:16:26.920Z,30.64
2018-05-25T13:18:55.451Z,30.72
2018-05-25T13:21:24.017Z,30.73
2018-05-25T13:23:52.620Z,30.58
2018-05-25T13:26:21.157Z,30.31
2018-05-25T13:28:49.726Z,30.17
2018-05-25T13:31:18.363Z,30.17
2018-05-25T13:33:46.909Z,30.11
2018-05-25T13:36:15.470Z,30.23
2018-05-25T13:38:44.033Z,30.11
2018-05-25T13:41:12.625Z,29.96
2018-05-25T13:43:41.847Z,30.27
2018-05-25T13:46:10.504Z,30.50
2018-05-25T13:48:39.165Z,30.27
2018-05-25T13:51:08.417Z,30.06
2018-05-25T13:53:37.008Z,30.26
2018-05-25T13:56:05.567Z,30.46
2018-05-25T13:58:34.215Z,30.20
2018-05-25T14:01:02.740Z,30.01
2018-05-25T14:03:31.376Z,30.04
2018-05-25T14:06:00.000Z,29.94
2018-05-25T14:08:28.656Z,30.06
2018-05-25T14:10:57.924Z,30.22
2018-05-25T14:13:26.502Z,30.44
2018-05-25T14:15:55.755Z,30.54
2018-05-25T14:18:24.303Z,30.55
2018-05-25T14:20:53.309Z,30.59
2018-05-25T14:23:21.833Z,30.49
2018-05-25T14:25:50.476Z,30.21
2018-05-25T14:28:19.159Z,30.46
2018-05-25T14:30:47.725Z,30.47
2018-05-25T14:33:16.255Z,30.43
2018-05-25T14:35:44.917Z,30.25
2018-05-25T14:38:13.461Z,30.24
2018-05-25T14:40:42.026Z,30.26
2018-05-25T14:43:10.537Z,29.98
2018-05-25T14:45:39.063Z,30.40
2018-05-25T14:48:07.605Z,30.44
2018-05-25T14:50:36.942Z,30.58
2018-05-25T14:53:05.542Z,30.78
2018-05-25T14:55:34.186Z,30.90
2018-05-25T14:58:02.771Z,30.76
2018-05-25T15:00:31.441Z,30.53
2018-05-25T15:02:59.970Z,29.66
2018-05-25T15:05:28.503Z,29.28
2018-05-25T15:07:57.017Z,29.02
2018-05-25T15:10:25.605Z,29.08
2018-05-25T15:12:54.125Z,28.68
2018-05-25T15:15:23.294Z,28.64
2018-05-25T15:17:51.837Z,28.60
2018-05-25T15:20:20.377Z,28.47
2018-05-25T15:22:49.761Z,28.04
2018-05-25T15:25:19.114Z,27.68
2018-05-25T15:27:47.706Z,27.60
2018-05-25T15:30:16.215Z,27.63
2018-05-25T15:32:44.772Z,27.39
2018-05-25T15:35:13.370Z,27.14
2018-05-25T15:37:41.941Z,27.22
2018-05-25T15:40:10.450Z,27.16
2018-05-25T15:42:39.814Z,27.20
2018-05-25T15:45:08.996Z,27.17
2018-05-25T15:47:37.797Z,27.09
2018-05-25T15:50:06.384Z,27.22
2018-05-25T15:52:34.911Z,27.12
2018-05-25T15:55:04.450Z,27.16
2018-05-25T15:57:32.956Z,27.11
2018-05-25T16:00:01.582Z,27.05
2018-05-25T16:02:30.803Z,27.15
2018-05-25T16:04:59.521Z,27.28
2018-05-25T16:07:28.049Z,27.28
2018-05-25T16:09:57.180Z,27.25
2018-05-25T16:12:25.882Z,27.32
2018-05-25T16:14:54.778Z,27.03
2018-05-25T16:17:23.299Z,27.04
2018-05-25T16:19:51.929Z,26.97
2018-05-25T16:22:20.466Z,26.84
2018-05-25T16:24:49.099Z,26.76
2018-05-25T16:27:17.741Z,26.60
2018-05-25T16:29:46.303Z,26.34
2018-05-25T16:32:15.049Z,26.11
2018-05-25T16:34:43.837Z,25.72
2018-05-25T16:37:12.517Z,25.59
2018-05-25T16:39:41.040Z,25.25
2018-05-25T16:42:09.618Z,24.89
2018-05-25T16:44:38.116Z,24.81
2018-05-25T16:47:07.410Z,24.76
2018-05-25T16:49:36.188Z,24.64
2018-05-25T16:52:04.770Z,24.60
2018-05-25T16:54:33.293Z,24.60
2018-05-25T16:57:01.826Z,24.61
2018-05-25T16:59:30.355Z,24.51
2018-05-25T17:01:58.948Z,24.44
2018-05-25T17:04:27.554Z,24.40
2018-05-25T17:06:56.046Z,24.39
2018-05-25T17:09:24.541Z,24.25
2018-05-25T17:11:53.120Z,24.12
2018-05-25T17:14:21.634Z,24.10
2018-05-25T17:16:50.173Z,24.05
2018-05-25T17:19:18.824Z,24.04
2018-05-25T17:21:47.363Z,23.90
2018-05-25T17:24:16.159Z,23.75
2018-05-25T17:26:44.680Z,23.66
2018-05-25T17:29:13.220Z,23.57
2018-05-25T17:31:41.852Z,23.53
2018-05-25T17:34:10.444Z,23.50
2018-05-25T17:36:39.011Z,23.51
2018-05-25T17:39:07.577Z,23.46
2018-05-25T17:41:36.133Z,23.45
2018-05-25T17:44:04.665Z,23.40
2018-05-25T17:46:33.189Z,23.27
2018-05-25T17:49:01.831Z,23.26
2018-05-25T17:51:30.425Z,23.20
2018-05-25T17:53:59.614Z,23.16
2018-05-25T17:56:28.168Z,23.12
2018-05-25T17:58:56.694Z,23.03
2018-05-25T18:01:25.291Z,23.00
2018-05-25T18:03:53.850Z,22.92
2018-05-25T18:06:22.359Z,22.88
2018-05-25T18:08:53.044Z,22.81
2018-05-25T18:11:21.533Z,22.73
2018-05-25T18:13:50.204Z,22.50
2018-05-25T18:16:19.018Z,22.46
2018-05-25T18:18:47.534Z,22.37
2018-05-25T18:21:16.168Z,22.35
2018-05-25T18:23:44.819Z,22.44
2018-05-25T18:26:13.424Z,22.45
2018-05-25T18:28:45.240Z,22.45
2018-05-25T18:31:15.515Z,22.45
2018-05-25T18:33:44.810Z,22.53
2018-05-25T18:36:13.501Z,22.62
2018-05-25T18:38:42.065Z,22.64
2018-05-25T18:41:10.650Z,22.65
2018-05-25T18:43:39.236Z,22.61
2018-05-25T18:46:08.856Z,22.64
2018-05-25T18:48:37.985Z,22.58
2018-05-25T18:51:06.475Z,22.66
2018-05-25T18:53:35.113Z,22.64
2018-05-25T18:56:04.300Z,22.59
2018-05-25T18:58:33.868Z,22.53
2018-05-25T19:01:02.372Z,22.55
2018-05-25T19:03:30.921Z,22.55
2018-05-25T19:05:59.665Z,22.58
2018-05-25T19:08:28.456Z,22.56
2018-05-25T19:10:56.942Z,22.39
2018-05-25T19:13:25.441Z,22.36
2018-05-25T19:15:54.004Z,22.27
2018-05-25T19:18:22.546Z,22.22
2018-05-25T19:20:51.331Z,22.29
2018-05-25T19:23:19.905Z,22.16
2018-05-25T19:25:48.430Z,22.09
2018-05-25T19:28:16.988Z,22.04
2018-05-25T19:30:45.597Z,21.96
2018-05-25T19:33:14.157Z,21.86
2018-05-25T19:35:42.730Z,21.78
2018-05-25T19:38:11.271Z,21.76
2018-05-25T19:40:39.857Z,21.69
2018-05-25T19:43:11.605Z,21.54
2018-05-25T19:45:41.652Z,21.42
2018-05-25T19:48:10.262Z,21.31
2018-05-25T19:50:39.589Z,21.15
2018-05-25T19:53:08.165Z,21.10
2018-05-25T19:55:36.733Z,20.98
2018-05-25T19:58:05.644Z,20.81
2018-05-25T20:00:34.182Z,20.78
2018-05-25T20:03:02.761Z,20.63
2018-05-25T20:05:31.270Z,20.52
2018-05-25T20:08:00.516Z,20.51
2018-05-25T20:10:29.209Z,20.48
2018-05-25T20:12:57.884Z,20.38
2018-05-25T20:15:27.051Z,20.42
2018-05-25T20:17:55.547Z,20.33
2018-05-25T20:20:24.314Z,20.22
2018-05-25T20:22:52.876Z,20.18
2018-05-25T20:25:21.360Z,20.12
2018-05-25T20:27:49.856Z,20.01
2018-05-25T20:30:18.410Z,20.11
2018-05-25T20:32:47.644Z,20.00
2018-05-25T20:35:16.240Z,19.92
2018-05-25T20:37:44.801Z,19.87
2018-05-25T20:40:14.015Z,19.82
2018-05-25T20:42:43.095Z,19.84
2018-05-25T20:45:11.785Z,19.73
2018-05-25T20:47:40.362Z,19.74
2018-05-25T20:50:08.946Z,19.75
2018-05-25T20:52:37.629Z,19.70
2018-05-25T20:55:06.211Z,19.66
2018-05-25T20:57:38.134Z,19.59
2018-05-25T21:00:07.516Z,19.60
2018-05-25T21:02:36.144Z,19.52
2018-05-25T21:05:12.002Z,19.54
2018-05-25T21:07:40.760Z,19.58
2018-05-25T21:10:10.824Z,19.55
2018-05-25T21:12:40.210Z,19.53
2018-05-25T21:15:08.774Z,19.48
2018-05-25T21:17:37.975Z,19.45
2018-05-25T21:20:06.843Z,19.47
2018-05-25T21:22:35.423Z,19.36
2018-05-25T21:25:04.043Z,19.37
2018-05-25T21:27:32.696Z,19.33
2018-05-25T21:30:01.329Z,19.25
2018-05-25T21:32:30.988Z,19.17
2018-05-25T21:34:59.767Z,19.14
2018-05-25T21:37:28.587Z,19.11
2018-05-25T21:39:57.143Z,18.96
2018-05-25T21:42:27.181Z,18.89
2018-05-25T21:44:55.831Z,19.01
2018-05-25T21:47:24.416Z,18.94
2018-05-25T21:49:52.977Z,18.96
2018-05-25T21:52:21.481Z,18.85
2018-05-25T21:54:50.264Z,18.89
2018-05-25T21:57:18.801Z,18.87
2018-05-25T21:59:47.431Z,18.76
2018-05-25T22:02:16.131Z,18.73
2018-05-25T22:04:44.678Z,18.66
2018-05-25T22:07:13.387Z,18.61
2018-05-25T22:09:42.742Z,18.61
2018-05-25T22:12:11.873Z,18.61
2018-05-25T22:14:40.459Z,18.54
2018-05-25T22:17:09.072Z,18.38
2018-05-25T22:19:37.586Z,18.41
2018-05-25T22:22:06.142Z,18.42
2018-05-25T22:24:34.789Z,18.39
2018-05-25T22:27:03.449Z,18.25
2018-05-25T22:29:32.166Z,18.27
2018-05-25T22:32:00.774Z,18.20
2018-05-25T22:34:29.434Z,18.23
2018-05-25T22:36:57.981Z,18.23
2018-05-25T22:39:26.829Z,18.29
2018-05-25T22:41:56.634Z,18.23
2018-05-25T22:44:37.121Z,18.20
2018-05-25T22:47:23.561Z,18.16
2018-05-25T22:50:10.209Z,18.12
2018-05-25T22:52:49.900Z,18.12
2018-05-25T22:55:19.240Z,18.07
2018-05-25T22:57:49.341Z,17.94
2018-05-25T23:00:19.491Z,17.98
2018-05-25T23:02:49.397Z,18.00
2018-05-25T23:05:19.229Z,17.92
2018-05-25T23:07:49.346Z,17.85
2018-05-25T23:10:20.318Z,17.74
2018-05-25T23:13:30.559Z,17.84
2018-05-25T23:16:01.445Z,17.99
2018-05-25T23:18:31.674Z,17.95
2018-05-25T23:21:02.025Z,17.94
2018-05-25T23:23:32.846Z,17.95
2018-05-25T23:26:02.971Z,17.88
2018-05-25T23:28:32.884Z,17.81
2018-05-25T23:31:02.977Z,17.75
2018-05-25T23:33:33.541Z,17.70
2018-05-25T23:36:04.181Z,17.69
2018-05-25T23:39:16.389Z,17.61
2018-05-25T23:41:46.438Z,17.50
2018-05-25T23:44:16.519Z,17.47
2018-05-25T23:46:48.700Z,17.49
2018-05-25T23:49:18.770Z,17.42
2018-05-25T23:52:31.588Z,17.38
2018-05-25T23:55:40.072Z,17.32
2018-05-25T23:58:10.150Z,17.25
